Taberg, New York
Current Conditions -  °F | °C
As of 2:30 PM on Thursday 18 Dec 2014 (Local Time) from KRME Reporting Station
Light Snow Light Snow  
Wind Chill: -6°   Ceiling: 1200
Heat Index: -1°   Visibility: 0.75mi
Dew Point: -2°   Wind: 12mph
Humidity: 96%   Direction: 280°W
Pressure: 29.98"   Gusts: NA
Location:  43.3°N, 75.62°W
Report Text: KRME 181930Z 28010KT 3/4SM -SN BR BKN012 OVC016 M01/M02 A2998 RMK AO2 SNB13 P0000 T10111017 RVRNO
Loading
Personal Weather Stations






























Interactive Weather Map New forecast layout! Learn more

10-Day Weather Forecast

Advertisements
Track Severe Weather on mobile